Time;durP1;ratioP1;P1;durP2;ratioP2;P2;SDS_P1;SDS_P2;PMS_P1;PMS_P2;Temp;Humidity;BMP_temperature;BMP_pressure;BME280_temperature;BME280_humidity;BME280_pressure;Samples;Min_cycle;Max_cycle;Signal;HPM_P1;HPM_P2
2022/04/30 00:00:58;;;;;;;4.57;3.65;;;11.00;69.30;;;;;;5044586;28;20108;-80
2022/04/30 00:03:28;;;;;;;4.15;3.40;;;11.00;69.60;;;;;;5037865;28;20030;-80
2022/04/30 00:05:55;;;;;;;3.70;3.30;;;11.00;69.90;;;;;;5037087;28;20100;-80
2022/04/30 00:08:21;;;;;;;4.95;3.20;;;11.10;70.40;;;;;;5037001;28;20027;-80
2022/04/30 00:10:48;;;;;;;4.25;3.58;;;11.00;70.60;;;;;;5037759;28;20029;-81
2022/04/30 00:13:14;;;;;;;3.53;2.92;;;11.00;70.60;;;;;;5043861;28;20021;-81
2022/04/30 00:15:40;;;;;;;4.03;2.95;;;11.00;70.80;;;;;;5071137;28;20043;-80
2022/04/30 00:18:06;;;;;;;6.55;4.30;;;11.00;70.90;;;;;;5075994;28;20147;-80
2022/04/30 00:20:32;;;;;;;4.82;3.80;;;11.00;70.90;;;;;;5076859;28;20040;-79
2022/04/30 00:22:58;;;;;;;4.13;3.58;;;11.00;71.00;;;;;;5071118;28;20041;-79
2022/04/30 00:25:24;;;;;;;5.85;3.60;;;11.00;71.30;;;;;;5067156;28;20064;-79
2022/04/30 00:27:51;;;;;;;5.38;4.25;;;10.90;71.30;;;;;;5062672;28;20040;-80
2022/04/30 00:30:17;;;;;;;6.05;3.47;;;10.90;71.50;;;;;;5046824;28;20029;-81
2022/04/30 00:32:43;;;;;;;4.50;3.65;;;10.80;71.70;;;;;;5041608;28;20029;-80
2022/04/30 00:35:09;;;;;;;5.10;3.60;;;10.80;72.10;;;;;;5048585;28;20438;-80
2022/04/30 00:37:34;;;;;;;4.50;3.55;;;10.80;72.20;;;;;;5057204;28;20029;-80
2022/04/30 00:40:02;;;;;;;3.90;3.50;;;10.80;72.20;;;;;;5057095;28;20079;-79
2022/04/30 00:42:28;;;;;;;4.53;3.83;;;10.80;72.50;;;;;;5056583;28;20304;-80
2022/04/30 00:44:54;;;;;;;4.80;4.03;;;10.80;72.70;;;;;;5057161;28;20037;-79
2022/04/30 00:47:20;;;;;;;5.32;3.95;;;10.80;72.90;;;;;;5056208;28;20102;-80
2022/04/30 00:49:46;;;;;;;6.20;4.25;;;10.70;73.30;;;;;;5055658;28;20044;-79
2022/04/30 00:52:15;;;;;;;4.78;3.85;;;10.60;73.50;;;;;;5054625;28;20144;-79
2022/04/30 00:54:42;;;;;;;4.82;3.95;;;10.60;73.50;;;;;;5055908;28;20045;-80
2022/04/30 00:57:13;;;;;;;4.30;3.40;;;10.60;73.80;;;;;;5036925;28;20151;-80
2022/04/30 00:59:40;;;;;;;4.65;3.72;;;10.60;74.00;;;;;;5035605;28;20099;-80
2022/04/30 01:02:09;;;;;;;4.65;3.67;;;10.60;74.30;;;;;;5034012;28;20029;-80
2022/04/30 01:04:35;;;;;;;6.07;4.43;;;10.50;74.50;;;;;;5035483;28;20504;-80
2022/04/30 01:07:08;;;;;;;5.15;4.25;;;10.50;74.50;;;;;;5034057;28;20033;-79
2022/04/30 01:09:42;;;;;;;4.97;4.38;;;10.50;74.50;;;;;;5034565;28;20025;-80
2022/04/30 01:12:10;;;;;;;5.93;4.82;;;10.50;74.60;;;;;;5034101;28;20029;-80
2022/04/30 01:14:38;;;;;;;5.72;4.75;;;10.40;74.40;;;;;;5035443;28;20033;-80
2022/04/30 01:17:06;;;;;;;5.90;4.65;;;10.40;74.30;;;;;;5052621;28;20389;-80
2022/04/30 01:19:37;;;;;;;5.88;4.60;;;10.30;74.10;;;;;;5055199;28;20049;-80
2022/04/30 01:22:12;;;;;;;7.20;4.87;;;10.30;73.90;;;;;;5054686;28;20528;-80
2022/04/30 01:24:39;;;;;;;5.70;4.93;;;10.30;73.90;;;;;;5056171;28;20024;-80
2022/04/30 01:27:06;;;;;;;5.07;4.35;;;10.20;73.90;;;;;;5053595;28;20029;-80
2022/04/30 01:29:33;;;;;;;7.20;4.65;;;10.20;74.00;;;;;;5054873;28;20803;-81
2022/04/30 01:37:36;;;;;;;6.05;5.00;;;10.10;74.90;;;;;;5038321;28;20025;-79
2022/04/30 01:40:03;;;;;;;;;;;10.10;75.40;;;;;;5052203;28;20013;-79
2022/04/30 01:42:31;;;;;;;6.00;4.78;;;10.10;75.80;;;;;;5043895;28;19955;-80
2022/04/30 01:45:00;;;;;;;5.72;4.70;;;10.00;76.30;;;;;;5037125;28;20108;-80
2022/04/30 01:47:28;;;;;;;6.47;5.15;;;10.00;77.00;;;;;;5036262;28;20039;-79
2022/04/30 01:50:00;;;;;;;7.47;5.85;;;10.00;77.40;;;;;;5038151;28;20033;-79
2022/04/30 01:52:25;;;;;;;6.75;5.28;;;10.00;77.80;;;;;;5033774;28;20067;-79
2022/04/30 01:54:51;;;;;;;5.93;4.60;;;9.90;78.30;;;;;;5037085;28;20061;-80
2022/04/30 01:57:26;;;;;;;5.28;4.40;;;9.90;78.70;;;;;;5037126;28;20083;-81
2022/04/30 01:59:57;;;;;;;5.60;4.10;;;9.90;79.10;;;;;;5034412;28;20024;-80
2022/04/30 02:02:26;;;;;;;6.80;6.07;;;9.90;79.30;;;;;;5034729;28;20032;-80
2022/04/30 02:04:57;;;;;;;6.75;5.78;;;9.80;79.30;;;;;;5035573;28;20029;-81
2022/04/30 02:07:25;;;;;;;8.87;5.57;;;9.80;79.50;;;;;;5034926;28;20025;-80
2022/04/30 02:09:51;;;;;;;7.13;5.57;;;9.70;79.80;;;;;;5034215;28;20267;-82
2022/04/30 02:12:17;;;;;;;7.15;5.05;;;9.70;80.20;;;;;;5034061;28;20095;-80
2022/04/30 02:14:48;;;;;;;5.28;4.50;;;9.70;80.80;;;;;;5035123;28;20032;-81
2022/04/30 02:17:16;;;;;;;8.00;4.45;;;9.70;81.20;;;;;;5035595;28;20421;-80
2022/04/30 02:22:30;;;;;;;4.78;4.25;;;9.70;81.50;;;;;;5039322;28;20032;-80
2022/04/30 02:24:57;;;;;;;6.03;4.82;;;9.70;81.70;;;;;;5041243;28;20100;-79
2022/04/30 02:27:24;;;;;;;7.75;4.95;;;9.70;81.60;;;;;;5056119;28;20116;-80
2022/04/30 02:29:50;;;;;;;5.75;4.50;;;9.70;81.50;;;;;;5050711;28;20044;-80
2022/04/30 02:32:17;;;;;;;5.75;4.82;;;9.70;81.50;;;;;;5031926;28;20482;-80
2022/04/30 02:34:42;;;;;;;5.53;4.95;;;9.60;81.50;;;;;;5034732;28;20071;-81
2022/04/30 02:37:13;;;;;;;5.38;4.53;;;9.60;81.40;;;;;;5034273;28;20018;-80
2022/04/30 02:39:38;;;;;;;6.32;4.43;;;9.60;81.30;;;;;;5033250;28;20494;-79
2022/04/30 02:42:04;;;;;;;6.72;5.22;;;9.60;81.50;;;;;;5032742;28;20025;-80
2022/04/30 02:44:31;;;;;;;6.88;5.43;;;9.60;82.00;;;;;;5034870;28;20039;-80
2022/04/30 02:46:57;;;;;;;9.18;7.38;;;9.60;82.30;;;;;;5052529;28;20063;-80
2022/04/30 02:49:22;;;;;;;9.73;7.13;;;9.50;82.50;;;;;;5053049;28;20091;-79
2022/04/30 02:51:49;;;;;;;9.32;7.38;;;9.50;83.00;;;;;;5054126;28;20628;-80
2022/04/30 02:54:15;;;;;;;9.13;6.65;;;9.50;83.80;;;;;;5052236;28;20025;-80
2022/04/30 02:56:42;;;;;;;6.95;5.90;;;9.40;84.40;;;;;;5053759;28;20017;-80
2022/04/30 03:01:52;;;;;;;7.30;6.00;;;9.40;85.60;;;;;;5029352;28;20562;-80
2022/04/30 03:04:18;;;;;;;8.27;5.38;;;9.30;86.00;;;;;;5032579;28;20061;-80
2022/04/30 03:06:46;;;;;;;6.05;5.45;;;9.30;86.40;;;;;;5034148;28;20064;-81
2022/04/30 03:09:12;;;;;;;7.47;6.25;;;9.30;86.90;;;;;;5033828;28;20478;-79
2022/04/30 03:11:38;;;;;;;7.70;6.28;;;9.20;87.30;;;;;;5034368;28;20148;-80
2022/04/30 03:14:03;;;;;;;7.20;6.28;;;9.20;87.80;;;;;;5034379;28;20050;-80
2022/04/30 03:22:01;;;;;;;8.10;6.13;;;9.20;89.00;;;;;;5034480;28;20028;-80
2022/04/30 03:24:29;;;;;;;6.68;5.72;;;9.20;89.00;;;;;;5035930;28;20049;-81
2022/04/30 03:26:55;;;;;;;10.25;5.80;;;9.20;89.10;;;;;;5052438;28;20039;-80
2022/04/30 03:29:20;;;;;;;6.78;5.53;;;9.10;89.30;;;;;;5057682;28;20037;-81
2022/04/30 03:31:47;;;;;;;6.32;5.10;;;9.10;89.60;;;;;;5034547;28;20041;-79
2022/04/30 03:34:14;;;;;;;8.15;6.03;;;9.10;89.90;;;;;;5039366;28;20026;-79
2022/04/30 03:36:40;;;;;;;7.25;6.38;;;9.10;90.10;;;;;;5035588;28;20025;-78
2022/04/30 03:39:06;;;;;;;9.73;7.13;;;9.00;90.40;;;;;;5036161;28;20034;-78
2022/04/30 03:41:32;;;;;;;9.40;6.57;;;9.00;90.70;;;;;;5036849;28;20022;-79
2022/04/30 03:43:58;;;;;;;6.93;5.85;;;8.90;91.00;;;;;;5036837;28;20036;-79
2022/04/30 03:46:24;;;;;;;6.00;5.35;;;8.90;91.30;;;;;;5035709;28;20033;-78
2022/04/30 03:48:53;;;;;;;7.18;4.90;;;8.80;91.60;;;;;;5037306;28;20287;-80
2022/04/30 03:51:23;;;;;;;6.10;5.50;;;8.80;91.80;;;;;;5025244;28;20030;-79
2022/04/30 03:53:49;;;;;;;7.97;4.93;;;8.80;91.90;;;;;;5034332;28;20059;-78
2022/04/30 03:56:19;;;;;;;5.28;4.78;;;8.90;92.00;;;;;;5037895;28;20531;-78
2022/04/30 03:58:47;;;;;;;4.78;4.28;;;8.90;92.00;;;;;;5035002;28;20426;-78
2022/04/30 04:01:14;;;;;;;5.70;4.70;;;9.00;91.90;;;;;;5035525;28;20017;-78
2022/04/30 04:03:41;;;;;;;5.07;4.32;;;9.00;91.60;;;;;;5030566;28;20029;-81
2022/04/30 04:06:07;;;;;;;5.72;4.95;;;9.00;91.30;;;;;;5037060;28;20613;-80
2022/04/30 04:08:34;;;;;;;4.68;4.28;;;9.00;91.00;;;;;;5035028;28;20025;-79
2022/04/30 04:11:00;;;;;;;5.03;4.45;;;9.00;90.90;;;;;;5037146;28;20021;-80
2022/04/30 04:18:55;;;;;;;3.97;3.60;;;9.20;91.10;;;;;;5036934;28;20402;-80
2022/04/30 04:21:22;;;;;;;5.32;4.60;;;9.20;91.20;;;;;;5036924;28;20437;-81
2022/04/30 04:26:32;;;;;;;4.70;4.00;;;9.30;91.20;;;;;;5039302;28;20074;-80
2022/04/30 04:28:58;;;;;;;4.10;3.70;;;9.40;91.10;;;;;;5055158;28;20124;-80
2022/04/30 04:31:24;;;;;;;4.07;3.67;;;9.40;91.00;;;;;;5060482;28;20034;-78
2022/04/30 04:33:50;;;;;;;5.28;4.18;;;9.50;90.90;;;;;;5048354;28;20041;-80
2022/04/30 04:36:16;;;;;;;4.93;3.92;;;9.50;90.60;;;;;;5039333;28;20057;-80
2022/04/30 04:38:43;;;;;;;4.40;3.85;;;9.50;90.10;;;;;;5036642;28;20028;-78
2022/04/30 04:41:08;;;;;;;3.80;3.33;;;9.60;90.00;;;;;;5037798;28;20029;-81
2022/04/30 04:43:34;;;;;;;4.00;3.55;;;9.60;89.50;;;;;;5037116;28;20037;-78
2022/04/30 04:46:02;;;;;;;3.80;3.30;;;9.80;89.00;;;;;;5038622;28;20029;-79
2022/04/30 04:48:31;;;;;;;3.65;3.35;;;9.90;88.60;;;;;;5055338;28;20032;-79
2022/04/30 04:50:58;;;;;;;4.60;3.50;;;9.90;88.20;;;;;;5059781;28;20402;-79
2022/04/30 04:53:23;;;;;;;3.33;2.80;;;10.00;87.80;;;;;;5057332;28;20590;-79
2022/04/30 04:55:49;;;;;;;3.95;3.55;;;10.00;87.40;;;;;;5057453;28;20025;-79
2022/04/30 04:58:15;;;;;;;3.58;3.15;;;10.00;87.10;;;;;;5056471;28;20017;-80
2022/04/30 05:00:41;;;;;;;6.22;4.18;;;10.10;87.10;;;;;;5042071;28;20079;-79
2022/04/30 05:03:07;;;;;;;4.55;3.65;;;10.10;86.70;;;;;;5036857;28;20470;-80
2022/04/30 05:05:33;;;;;;;4.93;3.90;;;10.10;86.60;;;;;;5037684;28;20108;-79
2022/04/30 05:07:59;;;;;;;4.22;3.80;;;10.20;86.10;;;;;;5046263;28;20055;-79
2022/04/30 05:10:25;;;;;;;5.07;3.75;;;10.30;85.50;;;;;;5057816;28;20017;-79
2022/04/30 05:12:51;;;;;;;3.58;3.28;;;10.30;84.90;;;;;;5057595;28;20032;-80
2022/04/30 05:15:16;;;;;;;4.10;3.70;;;10.40;84.50;;;;;;5041195;28;20029;-79
2022/04/30 05:17:42;;;;;;;4.43;3.88;;;10.50;83.70;;;;;;5035900;28;20033;-80
2022/04/30 05:20:08;;;;;;;3.45;3.00;;;10.60;82.70;;;;;;5037147;28;20092;-80
2022/04/30 05:22:34;;;;;;;2.92;2.70;;;10.70;82.00;;;;;;5036346;28;20030;-81
2022/04/30 05:25:00;;;;;;;4.90;4.03;;;10.80;81.50;;;;;;5035795;28;20029;-80
2022/04/30 05:27:26;;;;;;;3.33;3.00;;;10.70;81.10;;;;;;5036134;28;20025;-79
2022/04/30 05:29:51;;;;;;;3.50;3.20;;;10.70;81.30;;;;;;5039606;28;20187;-79
2022/04/30 05:32:17;;;;;;;3.20;2.90;;;10.80;81.70;;;;;;5035203;28;20112;-79
2022/04/30 05:34:43;;;;;;;3.53;2.72;;;10.90;81.70;;;;;;5047600;28;20061;-80
2022/04/30 05:37:09;;;;;;;3.00;2.70;;;11.00;81.00;;;;;;5061284;28;20032;-80
2022/04/30 05:39:34;;;;;;;4.07;3.35;;;11.00;81.00;;;;;;5039190;28;20026;-80
2022/04/30 05:42:00;;;;;;;3.25;2.95;;;11.10;80.80;;;;;;5036039;28;20030;-79
2022/04/30 05:44:26;;;;;;;4.82;3.42;;;11.20;79.90;;;;;;5038322;28;20506;-78
2022/04/30 05:46:51;;;;;;;3.95;3.20;;;11.20;79.80;;;;;;5043536;28;20061;-78
2022/04/30 05:49:17;;;;;;;4.38;3.92;;;11.40;79.70;;;;;;5043930;28;20060;-77
2022/04/30 05:51:43;;;;;;;4.47;4.07;;;11.50;79.00;;;;;;5044229;28;20026;-78
2022/04/30 05:54:09;;;;;;;5.88;5.28;;;11.50;78.10;;;;;;5042748;28;20041;-79
2022/04/30 05:56:35;;;;;;;5.05;4.28;;;11.60;77.80;;;;;;5041423;28;20048;-78
2022/04/30 05:59:01;;;;;;;7.15;4.93;;;11.70;78.00;;;;;;5037625;28;20017;-79
2022/04/30 06:01:26;;;;;;;7.00;5.93;;;11.80;78.10;;;;;;5037243;28;20036;-82
2022/04/30 06:03:53;;;;;;;6.97;6.25;;;11.90;77.80;;;;;;5045666;28;20033;-80
2022/04/30 06:06:20;;;;;;;13.88;7.97;;;12.00;77.70;;;;;;5046320;28;20454;-80
2022/04/30 06:08:56;;;;;;;9.75;7.95;;;12.00;75.10;;;;;;5052702;28;20048;-82
2022/04/30 06:11:23;;;;;;;12.23;8.93;;;12.20;74.40;;;;;;5052498;28;20108;-80
2022/04/30 06:13:49;;;;;;;10.75;7.70;;;12.40;73.10;;;;;;5049424;28;20025;-78
2022/04/30 06:16:16;;;;;;;11.88;8.02;;;12.30;73.00;;;;;;5041604;28;20419;-79
2022/04/30 06:18:42;;;;;;;8.35;6.95;;;12.60;73.50;;;;;;5038499;28;20037;-78
2022/04/30 06:21:08;;;;;;;9.30;7.20;;;13.40;72.80;;;;;;5039382;28;20029;-78
2022/04/30 06:23:34;;;;;;;8.70;6.93;;;14.00;68.70;;;;;;5036604;28;20025;-81
2022/04/30 06:26:00;;;;;;;12.30;8.48;;;14.30;68.20;;;;;;5036497;28;20053;-80
2022/04/30 06:28:25;;;;;;;8.43;7.43;;;14.90;65.40;;;;;;5036201;28;20032;-80
2022/04/30 06:30:51;;;;;;;11.35;8.00;;;15.30;63.80;;;;;;5038267;28;20033;-80
2022/04/30 06:33:17;;;;;;;9.27;7.20;;;15.80;62.70;;;;;;5036525;28;20051;-80
2022/04/30 06:35:44;;;;;;;8.60;7.22;;;17.10;59.90;;;;;;5036557;28;20021;-80
2022/04/30 06:38:11;;;;;;;13.40;8.73;;;18.00;57.20;;;;;;5034229;28;20085;-80
2022/04/30 06:40:37;;;;;;;7.97;6.68;;;17.90;54.70;;;;;;5033852;28;20430;-80
2022/04/30 06:43:03;;;;;;;8.90;7.15;;;17.10;56.90;;;;;;5031981;28;20047;-79
2022/04/30 06:45:29;;;;;;;8.68;7.65;;;16.70;57.80;;;;;;5037222;28;20024;-85
2022/04/30 06:47:55;;;;;;;12.25;9.57;;;17.00;57.80;;;;;;5037899;28;20021;-85
2022/04/30 06:50:20;;;;;;;10.00;8.70;;;17.10;56.10;;;;;;5036261;28;20029;-79
2022/04/30 06:58:15;;;;;;;10.63;8.52;;;16.90;56.10;;;;;;5047557;28;20166;-78
2022/04/30 07:03:27;;;;;;;8.10;6.57;;;16.20;60.60;;;;;;5044001;28;20018;-82
2022/04/30 07:06:04;;;;;;;15.05;9.13;;;16.10;61.50;;;;;;5060422;28;20080;-78
2022/04/30 07:08:34;;;;;;;10.50;7.10;;;15.90;60.40;;;;;;5041022;28;20439;-79
2022/04/30 07:11:01;;;;;;;7.30;6.60;;;15.60;60.60;;;;;;5038708;28;20395;-80
2022/04/30 07:13:29;;;;;;;10.07;9.02;;;15.50;61.00;;;;;;5032296;28;20025;-80
2022/04/30 07:15:55;;;;;;;10.05;8.13;;;15.50;60.20;;;;;;5055162;28;20562;-80
2022/04/30 07:18:21;;;;;;;11.93;8.90;;;15.40;61.10;;;;;;5038673;28;20033;-79
2022/04/30 07:20:47;;;;;;;8.85;7.95;;;15.30;60.90;;;;;;5038456;28;20018;-81
2022/04/30 07:23:13;;;;;;;9.98;8.48;;;15.30;61.50;;;;;;5038216;28;20026;-81
2022/04/30 07:25:39;;;;;;;10.05;8.00;;;15.20;61.70;;;;;;5046978;28;20077;-79
2022/04/30 07:28:04;;;;;;;8.55;7.15;;;15.10;62.20;;;;;;5046012;28;20041;-79
2022/04/30 07:30:30;;;;;;;8.98;6.82;;;15.10;62.30;;;;;;5038398;28;20057;-80
2022/04/30 07:32:56;;;;;;;12.05;8.63;;;15.20;62.30;;;;;;5039167;28;20029;-81
2022/04/30 07:35:21;;;;;;;11.32;8.35;;;15.30;61.80;;;;;;5039709;28;20022;-79
2022/04/30 07:37:47;;;;;;;10.18;7.60;;;15.30;61.60;;;;;;5040060;28;20024;-81
2022/04/30 07:40:13;;;;;;;11.13;8.10;;;15.40;61.80;;;;;;5048554;28;20032;-82
2022/04/30 07:42:39;;;;;;;8.05;7.10;;;15.60;60.80;;;;;;5060386;28;20032;-81
2022/04/30 07:45:05;;;;;;;9.13;7.82;;;15.70;60.50;;;;;;5063347;28;20465;-81
2022/04/30 07:47:30;;;;;;;9.35;8.10;;;15.80;60.10;;;;;;5061075;28;20033;-81
2022/04/30 07:49:56;;;;;;;11.18;8.48;;;15.80;60.20;;;;;;5059359;28;20086;-79
2022/04/30 07:52:22;;;;;;;13.75;9.75;;;15.80;59.50;;;;;;5060643;28;20474;-81
2022/04/30 07:54:48;;;;;;;12.20;8.77;;;15.70;59.30;;;;;;5063204;28;20116;-81
2022/04/30 07:57:13;;;;;;;8.75;7.85;;;15.70;59.60;;;;;;5061078;28;20029;-79
2022/04/30 07:59:39;;;;;;;11.70;8.90;;;15.80;60.20;;;;;;5058999;28;20021;-81
2022/04/30 08:02:05;;;;;;;12.98;9.73;;;15.90;58.80;;;;;;5046570;28;20053;-80
2022/04/30 08:04:31;;;;;;;12.65;9.60;;;15.90;58.20;;;;;;5053739;28;20017;-79
2022/04/30 08:06:59;;;;;;;18.42;10.57;;;15.80;58.40;;;;;;5057371;28;20076;-80
2022/04/30 08:09:25;;;;;;;13.43;10.35;;;15.70;59.60;;;;;;5059640;28;20024;-84
2022/04/30 08:11:51;;;;;;;10.65;8.73;;;15.60;59.10;;;;;;5058607;28;20017;-84
2022/04/30 08:14:16;;;;;;;12.30;8.48;;;15.50;59.80;;;;;;5056450;28;20029;-84
2022/04/30 08:16:42;;;;;;;11.95;8.63;;;15.60;59.70;;;;;;5043982;28;20462;-84
2022/04/30 08:19:08;;;;;;;14.18;9.57;;;15.70;59.60;;;;;;5043434;28;20100;-83
2022/04/30 08:21:34;;;;;;;12.02;9.50;;;15.80;58.80;;;;;;5043125;28;20425;-84
2022/04/30 08:24:00;;;;;;;15.27;10.88;;;15.80;58.40;;;;;;5043546;28;20456;-85
2022/04/30 08:26:25;;;;;;;14.23;11.68;;;15.70;58.50;;;;;;5042646;28;20029;-83
2022/04/30 08:28:51;;;;;;;14.13;10.15;;;15.50;58.80;;;;;;5045949;28;20450;-85
2022/04/30 08:31:18;;;;;;;14.77;11.07;;;15.50;59.30;;;;;;5047053;28;20017;-83
2022/04/30 08:33:43;;;;;;;15.68;11.48;;;15.60;59.00;;;;;;5045345;28;20021;-84
2022/04/30 08:36:09;;;;;;;13.93;10.07;;;15.70;58.80;;;;;;5054772;28;20025;-84
2022/04/30 08:38:35;;;;;;;12.82;10.30;;;15.80;59.30;;;;;;5053224;28;20702;-84
2022/04/30 08:41:01;;;;;;;10.00;8.98;;;16.00;58.30;;;;;;5049207;28;20028;-83
2022/04/30 08:43:28;;;;;;;13.63;9.60;;;16.30;58.30;;;;;;5043770;28;20031;-82
2022/04/30 08:45:54;;;;;;;14.18;10.20;;;16.70;57.60;;;;;;5042954;28;20083;-82
2022/04/30 08:48:20;;;;;;;11.55;9.73;;;17.20;55.20;;;;;;5045064;28;20116;-83
2022/04/30 08:50:47;;;;;;;12.43;10.60;;;17.40;55.20;;;;;;5048388;28;20036;-82
2022/04/30 08:53:14;;;;;;;13.10;9.98;;;17.40;54.20;;;;;;5043799;28;20021;-83
2022/04/30 08:55:40;;;;;;;12.88;11.23;;;17.30;54.40;;;;;;5043486;28;20073;-84
2022/04/30 08:58:06;;;;;;;14.48;11.07;;;17.20;54.10;;;;;;5042905;28;20037;-84
2022/04/30 09:00:42;;;;;;;12.13;10.45;;;17.00;54.70;;;;;;5042241;28;20022;-83
2022/04/30 09:03:08;;;;;;;15.10;11.15;;;16.80;55.60;;;;;;5043224;28;20032;-83
2022/04/30 09:05:36;;;;;;;15.18;11.45;;;16.70;55.80;;;;;;5041776;28;20029;-84
2022/04/30 09:08:03;;;;;;;14.52;11.68;;;16.60;56.10;;;;;;5041694;28;20025;-84
2022/04/30 09:10:34;;;;;;;14.57;11.25;;;16.50;56.50;;;;;;5040157;28;20032;-83
2022/04/30 09:13:18;;;;;;;15.75;10.93;;;16.40;57.00;;;;;;5041985;28;20078;-85
2022/04/30 09:15:46;;;;;;;12.32;10.73;;;16.40;57.30;;;;;;5040543;28;20029;-84
2022/04/30 09:18:14;;;;;;;14.48;11.13;;;16.40;57.50;;;;;;5051115;28;20014;-82
2022/04/30 09:20:48;;;;;;;14.77;10.30;;;16.40;57.50;;;;;;5045288;28;20025;-84
2022/04/30 09:23:24;;;;;;;15.40;11.20;;;16.40;58.20;;;;;;5042113;28;20024;-85
2022/04/30 09:25:53;;;;;;;14.85;12.48;;;16.40;58.30;;;;;;5062084;28;20124;-85
2022/04/30 09:28:30;;;;;;;13.88;10.75;;;16.40;58.00;;;;;;5068591;28;20041;-86
2022/04/30 09:31:18;;;;;;;14.55;11.18;;;16.30;58.20;;;;;;5061608;28;20029;-84
2022/04/30 09:33:57;;;;;;;14.55;11.02;;;16.30;58.00;;;;;;5055796;28;20041;-84
2022/04/30 09:39:16;;;;;;;10.40;9.05;;;16.30;58.40;;;;;;5042004;28;20123;-84
2022/04/30 09:41:42;;;;;;;12.85;7.63;;;16.30;58.00;;;;;;5042057;28;20032;-85
2022/04/30 09:44:10;;;;;;;6.75;5.95;;;16.50;58.00;;;;;;5041606;28;20029;-83
2022/04/30 09:46:38;;;;;;;10.43;8.43;;;16.80;58.20;;;;;;5055732;28;20036;-84
2022/04/30 09:54:40;;;;;;;12.07;10.20;;;16.90;56.60;;;;;;5061337;28;20035;-84
2022/04/30 09:57:07;;;;;;;13.57;10.82;;;16.70;56.60;;;;;;5060595;28;20029;-85
2022/04/30 09:59:38;;;;;;;10.45;7.93;;;16.50;57.50;;;;;;5061159;28;20031;-84
2022/04/30 10:02:06;;;;;;;13.25;10.25;;;16.40;58.20;;;;;;5060081;28;20024;-84
2022/04/30 10:04:34;;;;;;;14.30;10.70;;;16.40;57.20;;;;;;5042453;28;20029;-85
2022/04/30 10:07:01;;;;;;;10.48;9.32;;;16.30;57.60;;;;;;5046902;28;20044;-85
2022/04/30 10:09:42;;;;;;;8.85;7.93;;;16.20;57.80;;;;;;5040139;28;20099;-84
2022/04/30 10:12:12;;;;;;;10.98;9.30;;;16.10;58.30;;;;;;5040911;28;20025;-83
2022/04/30 10:14:38;;;;;;;14.77;9.02;;;16.10;58.20;;;;;;5038784;28;20094;-84
2022/04/30 10:17:19;;;;;;;12.73;9.55;;;16.10;58.80;;;;;;5048352;28;20021;-86
2022/04/30 10:19:59;;;;;;;10.48;8.20;;;16.00;59.10;;;;;;5061406;28;20089;-84
2022/04/30 10:22:26;;;;;;;10.73;9.48;;;16.00;59.70;;;;;;5076577;28;20035;-85
2022/04/30 10:24:58;;;;;;;14.77;9.45;;;16.00;59.30;;;;;;5070553;28;20025;-83
2022/04/30 10:27:36;;;;;;;12.38;8.93;;;15.80;59.40;;;;;;5059650;28;20032;-83
2022/04/30 10:30:02;;;;;;;11.68;8.95;;;15.70;60.50;;;;;;5062067;28;20481;-85
2022/04/30 10:32:33;;;;;;;12.07;9.07;;;15.70;60.60;;;;;;5058976;28;20033;-84
2022/04/30 10:35:00;;;;;;;9.77;7.80;;;15.80;61.00;;;;;;5043768;28;20036;-84
2022/04/30 10:37:37;;;;;;;10.70;9.38;;;15.70;60.80;;;;;;5044919;28;20532;-84
2022/04/30 10:40:08;;;;;;;12.10;8.52;;;15.70;61.00;;;;;;5043285;28;20045;-84
2022/04/30 10:42:42;;;;;;;13.50;8.55;;;15.60;61.00;;;;;;5043434;28;20026;-85
2022/04/30 10:45:13;;;;;;;9.75;8.45;;;15.50;61.10;;;;;;5043614;28;20033;-83
2022/04/30 10:47:59;;;;;;;12.68;8.68;;;15.30;62.00;;;;;;5046316;28;20401;-83
2022/04/30 10:50:25;;;;;;;11.50;8.82;;;15.30;61.80;;;;;;5063062;28;20113;-82
2022/04/30 10:52:51;;;;;;;9.73;7.57;;;15.30;62.60;;;;;;5057035;28;20472;-82
2022/04/30 10:55:22;;;;;;;13.32;8.70;;;15.40;63.00;;;;;;5063907;28;20450;-83
2022/04/30 10:57:48;;;;;;;9.18;7.00;;;15.60;61.70;;;;;;5063241;28;20029;-83
2022/04/30 11:00:15;;;;;;;10.15;8.20;;;15.60;61.20;;;;;;5069516;28;20055;-82
2022/04/30 11:02:40;;;;;;;8.65;7.85;;;15.70;61.10;;;;;;5059210;28;20029;-83
2022/04/30 11:05:18;;;;;;;13.77;8.02;;;15.80;61.50;;;;;;5060021;28;20025;-82
2022/04/30 11:07:44;;;;;;;9.32;7.47;;;15.90;62.00;;;;;;5053577;28;20543;-84
2022/04/30 11:10:11;;;;;;;9.38;7.78;;;16.00;62.30;;;;;;5043595;28;20061;-82
2022/04/30 11:12:37;;;;;;;8.57;7.65;;;16.00;62.90;;;;;;5044111;28;20026;-84
2022/04/30 11:15:03;;;;;;;9.85;8.02;;;16.00;64.80;;;;;;5044226;28;20083;-83
2022/04/30 11:17:28;;;;;;;7.82;7.03;;;15.80;66.70;;;;;;5042685;28;20033;-83
2022/04/30 11:19:55;;;;;;;12.48;7.70;;;15.70;68.40;;;;;;5042643;28;20021;-84
2022/04/30 11:22:22;;;;;;;8.20;7.40;;;15.80;69.10;;;;;;5045649;28;20021;-83
2022/04/30 11:24:48;;;;;;;8.55;7.43;;;16.00;69.10;;;;;;5044618;28;20026;-84
2022/04/30 11:27:14;;;;;;;9.35;7.35;;;16.10;68.50;;;;;;5044428;28;20085;-83
2022/04/30 11:29:55;;;;;;;7.22;6.53;;;16.30;68.20;;;;;;5043776;28;20041;-83
2022/04/30 11:32:23;;;;;;;8.98;7.38;;;16.30;69.40;;;;;;5044565;28;20017;-83
2022/04/30 11:34:50;;;;;;;11.73;8.15;;;16.30;67.10;;;;;;5044684;28;20052;-82
2022/04/30 11:37:16;;;;;;;9.40;8.43;;;16.20;67.50;;;;;;5043213;28;20025;-83
2022/04/30 11:39:41;;;;;;;10.65;8.38;;;16.00;66.70;;;;;;5041091;28;20017;-83
2022/04/30 11:42:08;;;;;;;10.60;7.75;;;15.80;67.00;;;;;;5043943;28;20481;-83
2022/04/30 11:44:33;;;;;;;10.93;7.88;;;15.60;68.30;;;;;;5044947;28;20172;-83
2022/04/30 11:46:59;;;;;;;8.68;6.80;;;15.40;68.30;;;;;;5049301;28;20009;-84
2022/04/30 11:49:27;;;;;;;14.07;7.97;;;15.30;69.20;;;;;;5053112;28;20330;-85
2022/04/30 11:51:55;;;;;;;9.85;7.95;;;15.30;68.80;;;;;;5056522;28;20029;-84
2022/04/30 11:54:24;;;;;;;9.10;8.10;;;15.20;68.60;;;;;;5055366;28;20451;-83
2022/04/30 11:56:51;;;;;;;13.02;8.73;;;15.10;68.60;;;;;;5043437;28;20017;-84
2022/04/30 11:59:30;;;;;;;11.80;8.38;;;14.90;69.50;;;;;;5041997;28;20411;-83
2022/04/30 12:02:06;;;;;;;9.25;7.15;;;14.80;69.70;;;;;;5042399;28;20029;-80
2022/04/30 12:04:37;;;;;;;9.38;7.45;;;14.80;71.00;;;;;;5042713;28;20026;-81
2022/04/30 12:07:08;;;;;;;10.52;6.82;;;14.80;70.60;;;;;;5041361;28;20116;-82
2022/04/30 12:09:37;;;;;;;8.27;7.17;;;14.80;70.30;;;;;;5040792;28;20510;-80
2022/04/30 12:12:17;;;;;;;8.95;6.25;;;14.80;70.20;;;;;;5043507;28;20501;-82
2022/04/30 12:15:03;;;;;;;7.65;5.70;;;14.80;69.90;;;;;;5043105;28;20049;-83
2022/04/30 12:17:30;;;;;;;10.10;6.53;;;14.90;70.20;;;;;;5042755;28;20053;-80
2022/04/30 12:25:47;;;;;;;7.00;6.03;;;15.10;68.10;;;;;;5045207;28;20041;-81
2022/04/30 12:28:13;;;;;;;6.32;5.72;;;14.90;68.80;;;;;;5043030;28;20225;-82
2022/04/30 12:30:55;;;;;;;7.82;5.53;;;14.70;69.20;;;;;;5044722;28;20083;-82
2022/04/30 12:33:21;;;;;;;6.10;5.18;;;14.60;70.20;;;;;;5042610;28;20095;-82
2022/04/30 12:35:56;;;;;;;6.68;5.28;;;14.60;70.90;;;;;;5046865;28;20166;-82
2022/04/30 12:38:22;;;;;;;8.10;5.05;;;14.60;70.30;;;;;;5056688;28;20398;-80
2022/04/30 12:40:48;;;;;;;10.90;5.28;;;14.70;70.80;;;;;;5048764;28;20052;-81
2022/04/30 12:43:19;;;;;;;5.93;5.10;;;14.80;69.00;;;;;;5045784;28;20025;-80
2022/04/30 12:45:45;;;;;;;5.88;4.93;;;14.90;68.80;;;;;;5043780;28;20022;-80
2022/04/30 12:48:11;;;;;;;7.88;4.72;;;15.00;69.20;;;;;;5044574;28;20022;-81
2022/04/30 12:50:38;;;;;;;6.43;5.30;;;15.00;68.40;;;;;;5046289;28;20017;-81
2022/04/30 12:53:09;;;;;;;6.07;4.72;;;15.00;66.80;;;;;;5046144;28;20022;-81
2022/04/30 12:55:39;;;;;;;7.85;4.90;;;14.90;66.00;;;;;;5041278;28;20471;-81
2022/04/30 12:58:06;;;;;;;5.68;4.78;;;14.70;67.00;;;;;;5040377;28;20498;-81
2022/04/30 13:00:35;;;;;;;6.88;5.45;;;14.60;67.40;;;;;;5042833;28;20467;-81
2022/04/30 13:03:01;;;;;;;5.13;4.40;;;14.50;67.30;;;;;;5042649;28;20028;-81
2022/04/30 13:05:27;;;;;;;5.82;5.15;;;14.50;68.00;;;;;;5045277;28;20029;-81
2022/04/30 13:07:54;;;;;;;9.70;5.82;;;14.50;68.40;;;;;;5042841;28;20037;-82
2022/04/30 13:15:48;;;;;;;6.78;5.43;;;14.60;69.00;;;;;;5043924;28;20036;-82
2022/04/30 13:18:15;;;;;;;5.70;5.15;;;14.70;68.40;;;;;;5054409;28;20061;-81
2022/04/30 13:20:42;;;;;;;5.03;4.50;;;14.70;67.40;;;;;;5055687;28;20511;-82
2022/04/30 13:23:08;;;;;;;5.93;4.60;;;14.70;67.80;;;;;;5043397;28;20029;-81
2022/04/30 13:25:35;;;;;;;5.35;4.60;;;14.60;67.50;;;;;;5046194;28;20045;-81
2022/04/30 13:28:01;;;;;;;8.02;5.78;;;14.60;69.40;;;;;;5042643;28;20021;-81
2022/04/30 13:30:29;;;;;;;9.18;5.10;;;14.60;69.00;;;;;;5045814;28;20017;-80
2022/04/30 13:32:55;;;;;;;5.75;5.10;;;14.60;69.00;;;;;;5040822;28;20336;-81
2022/04/30 13:35:21;;;;;;;5.05;4.43;;;14.80;68.90;;;;;;5041192;28;20032;-82
2022/04/30 13:37:46;;;;;;;6.68;4.68;;;14.80;68.90;;;;;;5040116;28;20033;-82
2022/04/30 13:40:16;;;;;;;6.47;4.20;;;14.90;67.70;;;;;;5042306;28;20028;-83